Blue Star Naxos — SZUI — position and weather

sailwx.info

Track history (hours):
 
Tides and Currents Weather Stations Pressure Air Temp Water Temp Dewpoint Dewpoint Depression Visibility Wind Speed Wind Dir Waves Ship Positions

Blue Star Naxos

Last reported at 2014-Oct-02 03:31 UTC. Time now 2014-Oct-02 04:32 UTC.
Position N 36°56' E 026°04'.

Length 124 m; draft 5 m.

Type: Passenger vessel. MMSI: 239923000.

Date/timePositionNaut miles runAvg speedWind from/ knotsBaromVisibWave heightAir tempDewpointWater temp
2014-Oct-02 03:31N 36°56' E 026°04'2121.7
2014-Oct-02 02:31N 36°38' E 026°18'0 0.1
2014-Oct-02 00:33N 36°38' E 026°18'2222.3
2014-Oct-01 23:33N 36°57' E 026°04'6 5.9
2014-Oct-01 22:33N 36°54' E 025°58'1817.8
2014-Oct-01 21:33N 37°08' E 025°43'1717.1
2014-Oct-01 20:33N 37°06' E 025°22'10 9.3
2014-Oct-01 19:32N 37°08' E 025°10'8 8.5
2014-Oct-01 18:33N 37°08' E 024°60'2222.2
2014-Oct-01 17:34N 37°14' E 024°33'2222.0
2014-Oct-01 16:33N 37°25' E 024°09'2422.2
2014-Oct-01 15:28N 37°39' E 023°44'1819.8
2014-Oct-01 14:33N 37°57' E 023°38'0 0.3
2014-Oct-01 13:33N 37°57' E 023°38'0 0.0
2014-Oct-01 12:33N 37°57' E 023°38'10 9.9
2014-Oct-01 11:33N 37°47' E 023°42'4922.1
2014-Oct-01 09:20N 37°16' E 024°29'1722.5
2014-Oct-01 08:33N 37°11' E 024°50'1615.7
2014-Oct-01 07:33N 37°05' E 025°09'1110.5
2014-Oct-01 06:32N 37°06' E 025°22'5 5.6
2014-Oct-01 05:33N 37°01' E 025°19'1313.0
2014-Oct-01 04:33N 36°52' E 025°31'10 9.5
2014-Oct-01 03:33N 36°54' E 025°42'6 2.2
2014-Oct-01 00:33N 36°51' E 025°49'1515.0
2014-Sep-30 23:34N 36°54' E 025°30'2 2.3
2014-Sep-30 22:33N 36°52' E 025°28'1515.3
2014-Sep-30 21:33N 37°06' E 025°22'10 9.4
2014-Sep-30 20:33N 37°08' E 025°10'6 6.2
2014-Sep-30 19:34N 37°12' E 025°04'1515.0
2014-Sep-30 18:32N 37°26' E 024°57'1414.4
2014-Sep-30 17:33N 37°31' E 024°40'2321.3
2014-Sep-30 16:29N 37°32' E 024°11'2022.0
2014-Sep-30 15:33N 37°39' E 023°47'1919.0
2014-Sep-30 14:33N 37°57' E 023°38'0 0.3
2014-Sep-30 13:34N 37°57' E 023°38'0 0.0
2014-Sep-30 12:33N 37°57' E 023°38'1313.2
2014-Sep-30 11:33N 37°44' E 023°44'4522.1
2014-Sep-30 09:30N 37°16' E 024°28'2122.3
2014-Sep-30 08:33N 37°10' E 024°54'1312.7
2014-Sep-30 07:32N 37°05' E 025°09'1110.9
2014-Sep-30 06:33N 37°06' E 025°22'1111.4
2014-Sep-30 05:33N 37°12' E 025°34'1717.2
2014-Sep-30 04:33N 37°01' E 025°51'1010.4
2014-Sep-30 03:33N 36°57' E 026°03'2321.8
2014-Sep-30 02:30N 36°38' E 026°18'0 0.4
2014-Sep-30 01:33N 36°37' E 026°18'2319.6
2014-Sep-30 00:24N 36°58' E 026°06'1113.2
2014-Sep-29 23:34N 37°06' E 025°57'1010.2
2014-Sep-29 22:33N 36°56' E 025°55'1716.9
2014-Sep-29 21:33N 37°09' E 025°41'1515.4
2014-Sep-29 20:33N 37°06' E 025°22'9 9.4
2014-Sep-29 19:33N 37°09' E 025°11'8 8.3
2014-Sep-29 18:33N 37°08' E 025°00'2221.9
2014-Sep-29 17:33N 37°14' E 024°34'4421.9
2014-Sep-29 15:32N 37°39' E 023°47'1919.9
2014-Sep-29 14:34N 37°56' E 023°38'1 0.5
2014-Sep-29 13:33N 37°57' E 023°38'0 0.0
2014-Sep-29 12:34N 37°57' E 023°38'1110.7
2014-Sep-29 11:33N 37°47' E 023°42'5222.0
2014-Sep-29 09:11N 37°15' E 024°34'1422.3
2014-Sep-29 08:33N 37°10' E 024°51'1514.6
2014-Sep-29 07:31N 37°05' E 025°09'1111.0
2014-Sep-29 06:34N 37°06' E 025°22'8 8.2
2014-Sep-29 05:33N 36°58' E 025°21'10 9.5
2014-Sep-29 04:33N 36°52' E 025°31'10 9.8
2014-Sep-29 03:33N 36°54' E 025°42'8 2.5
2014-Sep-29 00:12N 36°50' E 025°51'1219.2
2014-Sep-28 23:33N 36°55' E 025°38'7 7.2
2014-Sep-28 22:33N 36°52' E 025°30'1514.9
2014-Sep-28 21:33N 37°03' E 025°18'8 7.6
2014-Sep-28 20:34N 37°10' E 025°13'6 6.2
2014-Sep-28 19:32N 37°11' E 025°05'1717.5
2014-Sep-28 18:32N 37°26' E 024°57'1313.5
2014-Sep-28 17:33N 37°32' E 024°41'2321.8
2014-Sep-28 16:30N 37°32' E 024°12'2221.8
2014-Sep-28 15:30N 37°39' E 023°46'1919.9
2014-Sep-28 14:34N 37°56' E 023°38'1 0.6
2014-Sep-28 13:34N 37°57' E 023°38'0 0.0
2014-Sep-28 12:34N 37°57' E 023°38'1211.5
2014-Sep-28 11:33N 37°46' E 023°43'5022.2
2014-Sep-28 09:18N 37°15' E 024°33'1722.3
2014-Sep-28 08:33N 37°10' E 024°53'1413.6
2014-Sep-28 07:32N 37°05' E 025°09'1111.0
2014-Sep-28 06:33N 37°06' E 025°22'1413.8
2014-Sep-28 05:33N 36°52' E 025°22'2121.2
2014-Sep-28 04:34N 36°31' E 025°22'9 8.6
2014-Sep-28 03:33N 36°23' E 025°26'0 0.0
2014-Sep-28 02:33N 36°23' E 025°26'0 0.0
2014-Sep-28 01:33N 36°23' E 025°26'0 0.0
2014-Sep-28 00:33N 36°23' E 025°26'1313.5
2014-Sep-27 23:33N 36°36' E 025°23'2221.7
2014-Sep-27 22:33N 36°58' E 025°20'9 8.8
2014-Sep-27 21:33N 37°06' E 025°22'0 0.2
2014-Sep-27 20:33N 37°06' E 025°22'8 8.2
2014-Sep-27 19:33N 37°10' E 025°13'9 9.0
2014-Sep-27 18:33N 37°07' E 025°02'2222.4
2014-Sep-27 17:33N 37°14' E 024°35'4622.6
2014-Sep-27 15:30N 37°39' E 023°46'1919.8
2014-Sep-27 14:33N 37°57' E 023°38'0 0.3
2014-Sep-27 13:33N 37°57' E 023°38'0 0.0
2014-Sep-27 12:33N 37°57' E 023°38'1212.2
2014-Sep-27 11:33N 37°45' E 023°43'4621.8
2014-Sep-27 09:26N 37°16' E 024°28'2022.7
2014-Sep-27 08:33N 37°10' E 024°52'1414.0
2014-Sep-27 07:33N 37°05' E 025°09'1110.7
2014-Sep-27 06:34N 37°06' E 025°22'6 5.9
2014-Sep-27 05:32N 37°01' E 025°20'1212.5
2014-Sep-27 04:33N 36°52' E 025°31'10 9.8
2014-Sep-27 03:32N 36°54' E 025°43'2 0.7
2014-Sep-27 00:33N 36°52' E 025°45'1111.4
2014-Sep-26 23:34N 36°52' E 025°31'1413.7
2014-Sep-26 22:33N 37°02' E 025°19'5 5.3
2014-Sep-26 21:33N 37°06' E 025°22'0 0.0
2014-Sep-26 20:33N 37°06' E 025°22'1110.7
2014-Sep-26 19:33N 37°07' E 025°09'8 7.4
2014-Sep-26 18:31N 37°08' E 024°59'2222.5
2014-Sep-26 17:33N 37°15' E 024°33'2322.3
2014-Sep-26 16:30N 37°25' E 024°07'2222.4
2014-Sep-26 15:31N 37°39' E 023°45'1919.5
2014-Sep-26 14:33N 37°57' E 023°38'0 0.2
2014-Sep-26 13:33N 37°57' E 023°38'0 0.0
2014-Sep-26 12:33N 37°57' E 023°38'8 8.0
2014-Sep-26 11:34N 37°49' E 023°41'6622.0
2014-Sep-26 08:34N 37°14' E 024°52'1716.0
2014-Sep-26 07:32N 37°05' E 025°09'1110.8
2014-Sep-26 06:33N 37°06' E 025°22'9 8.8
2014-Sep-26 05:34N 37°12' E 025°30'1918.5
2014-Sep-26 04:33N 37°02' E 025°50'1312.6
2014-Sep-26 03:31N 36°56' E 026°04'2222.0
2014-Sep-26 02:33N 36°38' E 026°18'7 3.6
2014-Sep-26 00:33N 36°44' E 026°14'1717.1
2014-Sep-25 23:33N 36°54' E 025°57'1413.6
2014-Sep-25 22:33N 37°06' E 025°48'1818.0
2014-Sep-25 21:32N 37°09' E 025°25'1010.1
2014-Sep-25 20:33N 37°09' E 025°13'7 6.3
2014-Sep-25 19:28N 37°11' E 025°05'1617.6
2014-Sep-25 18:32N 37°26' E 024°57'1313.2
2014-Sep-25 17:32N 37°31' E 024°41'2222.4
2014-Sep-25 16:34N 37°31' E 024°13'2422.6
2014-Sep-25 15:29N 37°39' E 023°45'1819.6
2014-Sep-25 14:34N 37°57' E 023°38'0 0.1
2014-Sep-25 13:33N 37°57' E 023°38'0 0.0
2014-Sep-25 12:33N 37°57' E 023°38'6 6.3
2014-Sep-25 11:34N 37°51' E 023°40'6722.2
2014-Sep-25 08:33N 37°15' E 024°51'1717.3
2014-Sep-25 07:33N 37°05' E 025°09'1010.1
2014-Sep-25 06:33N 37°07' E 025°21'1110.6
2014-Sep-25 05:33N 37°13' E 025°33'1817.9
2014-Sep-25 04:33N 37°02' E 025°50'1211.7
2014-Sep-25 03:33N 36°56' E 026°03'2422.0
2014-Sep-25 02:28N 36°36' E 026°19'14 4.7
2014-Sep-24 23:33N 36°48' E 026°10'1211.5
2014-Sep-24 22:32N 36°54' E 025°58'1717.2
2014-Sep-24 21:33N 37°07' E 025°44'1817.9
2014-Sep-24 20:34N 37°07' E 025°22'10 9.0
2014-Sep-24 19:30N 37°08' E 025°10'7 7.0
2014-Sep-24 18:33N 37°08' E 025°02'2222.3
2014-Sep-24 17:33N 37°14' E 024°35'4622.3
2014-Sep-24 15:28N 37°38' E 023°45'1920.6
2014-Sep-24 14:33N 37°56' E 023°38'1 0.6
2014-Sep-24 13:33N 37°57' E 023°38'0 0.0
2014-Sep-24 12:33N 37°57' E 023°38'8 7.5
2014-Sep-24 11:34N 37°50' E 023°41'5322.4
2014-Sep-24 09:12N 37°15' E 024°31'1523.3
2014-Sep-24 08:34N 37°10' E 024°49'1716.2
2014-Sep-24 07:32N 37°05' E 025°09'1110.9
2014-Sep-24 06:34N 37°06' E 025°22'6 5.6
2014-Sep-24 05:34N 37°01' E 025°19'1313.1
2014-Sep-24 04:34N 36°52' E 025°31'1010.0
2014-Sep-24 03:34N 36°53' E 025°43'8 2.6
2014-Sep-24 00:31N 36°50' E 025°52'1314.0
2014-Sep-23 23:34N 36°54' E 025°36'9 9.0
2014-Sep-23 22:33N 36°54' E 025°25'1212.3
2014-Sep-23 21:33N 37°06' E 025°22'1211.6
2014-Sep-23 20:33N 37°05' E 025°08'9 9.3
2014-Sep-23 19:33N 37°14' E 025°04'1413.8
2014-Sep-23 18:33N 37°26' E 024°57'1212.2
2014-Sep-23 17:33N 37°31' E 024°42'2222.0
2014-Sep-23 16:33N 37°31' E 024°14'2322.5
2014-Sep-23 15:33N 37°39' E 023°47'1919.7
2014-Sep-23 14:34N 37°56' E 023°38'1 0.5
2014-Sep-23 13:33N 37°57' E 023°38'0 0.0
2014-Sep-23 12:33N 37°57' E 023°38'8 8.0
2014-Sep-23 11:33N 37°49' E 023°41'4321.4
2014-Sep-23 09:33N 37°28' E 024°28'2322.9
2014-Sep-23 08:33N 37°14' E 024°52'1716.3
2014-Sep-23 07:32N 37°05' E 025°09'1010.8
2014-Sep-23 06:33N 37°06' E 025°22'9 9.2
2014-Sep-23 05:33N 37°13' E 025°31'1818.1
2014-Sep-23 04:33N 37°03' E 025°49'1312.1
2014-Sep-23 03:31N 36°56' E 026°03'2221.9
2014-Sep-23 02:31N 36°38' E 026°18'3 1.3
2014-Sep-23 00:05N 36°36' E 026°20'1222.5
2014-Sep-22 23:33N 36°46' E 026°12'1412.5
2014-Sep-22 22:24N 36°54' E 025°58'1517.8
2014-Sep-22 21:33N 37°06' E 025°46'1918.9
2014-Sep-22 20:33N 37°07' E 025°22'8 8.4
2014-Sep-22 19:33N 37°09' E 025°12'9 8.6
2014-Sep-22 18:33N 37°08' E 025°02'2222.3
2014-Sep-22 17:33N 37°14' E 024°35'3322.4
2014-Sep-22 16:06N 37°30' E 023°59'1322.8
2014-Sep-22 15:33N 37°38' E 023°46'1919.8
2014-Sep-22 14:34N 37°57' E 023°38'0 0.4
2014-Sep-22 13:34N 37°57' E 023°38'0 0.0
2014-Sep-22 12:34N 37°57' E 023°38'7 7.1
2014-Sep-22 11:34N 37°50' E 023°40'6622.0
2014-Sep-22 08:33N 37°15' E 024°51'1717.1
2014-Sep-22 07:33N 37°05' E 025°09'1010.4
2014-Sep-22 06:33N 37°07' E 025°22'6 5.7
2014-Sep-22 05:33N 37°01' E 025°19'1312.6
2014-Sep-22 04:32N 36°52' E 025°31'9 8.9
2014-Sep-22 03:33N 36°55' E 025°41'  
Track history (hours):
 
Tides and Currents Weather Stations Pressure Air Temp Water Temp Dewpoint Dewpoint Depression Visibility Wind Speed Wind Dir Waves Ship Positions

Blue Star Naxos

Last reported at 2014-Oct-02 03:31 UTC. Time now 2014-Oct-02 04:32 UTC.
Position N 36°56' E 026°04'.

Length 124 m; draft 5 m.

Type: Passenger vessel. MMSI: 239923000.

Date/timePositionNaut miles runAvg speedWind from/ knotsBaromVisibWave heightAir tempDewpointWater temp
2014-Oct-02 03:31N 36°56' E 026°04'2121.7
2014-Oct-02 02:31N 36°38' E 026°18'0 0.1
2014-Oct-02 00:33N 36°38' E 026°18'2222.3
2014-Oct-01 23:33N 36°57' E 026°04'6 5.9
2014-Oct-01 22:33N 36°54' E 025°58'1817.8
2014-Oct-01 21:33N 37°08' E 025°43'1717.1
2014-Oct-01 20:33N 37°06' E 025°22'10 9.3
2014-Oct-01 19:32N 37°08' E 025°10'8 8.5
2014-Oct-01 18:33N 37°08' E 024°60'2222.2
2014-Oct-01 17:34N 37°14' E 024°33'2222.0
2014-Oct-01 16:33N 37°25' E 024°09'2422.2
2014-Oct-01 15:28N 37°39' E 023°44'1819.8
2014-Oct-01 14:33N 37°57' E 023°38'0 0.3
2014-Oct-01 13:33N 37°57' E 023°38'0 0.0
2014-Oct-01 12:33N 37°57' E 023°38'10 9.9
2014-Oct-01 11:33N 37°47' E 023°42'4922.1
2014-Oct-01 09:20N 37°16' E 024°29'1722.5
2014-Oct-01 08:33N 37°11' E 024°50'1615.7
2014-Oct-01 07:33N 37°05' E 025°09'1110.5
2014-Oct-01 06:32N 37°06' E 025°22'5 5.6
2014-Oct-01 05:33N 37°01' E 025°19'1313.0
2014-Oct-01 04:33N 36°52' E 025°31'10 9.5
2014-Oct-01 03:33N 36°54' E 025°42'6 2.2
2014-Oct-01 00:33N 36°51' E 025°49'1515.0
2014-Sep-30 23:34N 36°54' E 025°30'2 2.3
2014-Sep-30 22:33N 36°52' E 025°28'1515.3
2014-Sep-30 21:33N 37°06' E 025°22'10 9.4
2014-Sep-30 20:33N 37°08' E 025°10'6 6.2
2014-Sep-30 19:34N 37°12' E 025°04'1515.0
2014-Sep-30 18:32N 37°26' E 024°57'1414.4
2014-Sep-30 17:33N 37°31' E 024°40'2321.3
2014-Sep-30 16:29N 37°32' E 024°11'2022.0
2014-Sep-30 15:33N 37°39' E 023°47'1919.0
2014-Sep-30 14:33N 37°57' E 023°38'0 0.3
2014-Sep-30 13:34N 37°57' E 023°38'0 0.0
2014-Sep-30 12:33N 37°57' E 023°38'1313.2
2014-Sep-30 11:33N 37°44' E 023°44'4522.1
2014-Sep-30 09:30N 37°16' E 024°28'2122.3
2014-Sep-30 08:33N 37°10' E 024°54'1312.7
2014-Sep-30 07:32N 37°05' E 025°09'1110.9
2014-Sep-30 06:33N 37°06' E 025°22'1111.4
2014-Sep-30 05:33N 37°12' E 025°34'1717.2
2014-Sep-30 04:33N 37°01' E 025°51'1010.4
2014-Sep-30 03:33N 36°57' E 026°03'2321.8
2014-Sep-30 02:30N 36°38' E 026°18'0 0.4
2014-Sep-30 01:33N 36°37' E 026°18'2319.6
2014-Sep-30 00:24N 36°58' E 026°06'1113.2
2014-Sep-29 23:34N 37°06' E 025°57'1010.2
2014-Sep-29 22:33N 36°56' E 025°55'1716.9
2014-Sep-29 21:33N 37°09' E 025°41'1515.4
2014-Sep-29 20:33N 37°06' E 025°22'9 9.4
2014-Sep-29 19:33N 37°09' E 025°11'8 8.3
2014-Sep-29 18:33N 37°08' E 025°00'2221.9
2014-Sep-29 17:33N 37°14' E 024°34'4421.9
2014-Sep-29 15:32N 37°39' E 023°47'1919.9
2014-Sep-29 14:34N 37°56' E 023°38'1 0.5
2014-Sep-29 13:33N 37°57' E 023°38'0 0.0
2014-Sep-29 12:34N 37°57' E 023°38'1110.7
2014-Sep-29 11:33N 37°47' E 023°42'5222.0
2014-Sep-29 09:11N 37°15' E 024°34'1422.3
2014-Sep-29 08:33N 37°10' E 024°51'1514.6
2014-Sep-29 07:31N 37°05' E 025°09'1111.0
2014-Sep-29 06:34N 37°06' E 025°22'8 8.2
2014-Sep-29 05:33N 36°58' E 025°21'10 9.5
2014-Sep-29 04:33N 36°52' E 025°31'10 9.8
2014-Sep-29 03:33N 36°54' E 025°42'8 2.5
2014-Sep-29 00:12N 36°50' E 025°51'1219.2
2014-Sep-28 23:33N 36°55' E 025°38'7 7.2
2014-Sep-28 22:33N 36°52' E 025°30'1514.9
2014-Sep-28 21:33N 37°03' E 025°18'8 7.6
2014-Sep-28 20:34N 37°10' E 025°13'6 6.2
2014-Sep-28 19:32N 37°11' E 025°05'1717.5
2014-Sep-28 18:32N 37°26' E 024°57'1313.5
2014-Sep-28 17:33N 37°32' E 024°41'2321.8
2014-Sep-28 16:30N 37°32' E 024°12'2221.8
2014-Sep-28 15:30N 37°39' E 023°46'1919.9
2014-Sep-28 14:34N 37°56' E 023°38'1 0.6
2014-Sep-28 13:34N 37°57' E 023°38'0 0.0
2014-Sep-28 12:34N 37°57' E 023°38'1211.5
2014-Sep-28 11:33N 37°46' E 023°43'5022.2
2014-Sep-28 09:18N 37°15' E 024°33'1722.3
2014-Sep-28 08:33N 37°10' E 024°53'1413.6
2014-Sep-28 07:32N 37°05' E 025°09'1111.0
2014-Sep-28 06:33N 37°06' E 025°22'1413.8
2014-Sep-28 05:33N 36°52' E 025°22'2121.2
2014-Sep-28 04:34N 36°31' E 025°22'9 8.6
2014-Sep-28 03:33N 36°23' E 025°26'0 0.0
2014-Sep-28 02:33N 36°23' E 025°26'0 0.0
2014-Sep-28 01:33N 36°23' E 025°26'0 0.0
2014-Sep-28 00:33N 36°23' E 025°26'1313.5
2014-Sep-27 23:33N 36°36' E 025°23'2221.7
2014-Sep-27 22:33N 36°58' E 025°20'9 8.8
2014-Sep-27 21:33N 37°06' E 025°22'0 0.2
2014-Sep-27 20:33N 37°06' E 025°22'8 8.2
2014-Sep-27 19:33N 37°10' E 025°13'9 9.0
2014-Sep-27 18:33N 37°07' E 025°02'2222.4
2014-Sep-27 17:33N 37°14' E 024°35'4622.6
2014-Sep-27 15:30N 37°39' E 023°46'1919.8
2014-Sep-27 14:33N 37°57' E 023°38'0 0.3
2014-Sep-27 13:33N 37°57' E 023°38'0 0.0
2014-Sep-27 12:33N 37°57' E 023°38'1212.2
2014-Sep-27 11:33N 37°45' E 023°43'4621.8
2014-Sep-27 09:26N 37°16' E 024°28'2022.7
2014-Sep-27 08:33N 37°10' E 024°52'1414.0
2014-Sep-27 07:33N 37°05' E 025°09'1110.7
2014-Sep-27 06:34N 37°06' E 025°22'6 5.9
2014-Sep-27 05:32N 37°01' E 025°20'1212.5
2014-Sep-27 04:33N 36°52' E 025°31'10 9.8
2014-Sep-27 03:32N 36°54' E 025°43'2 0.7
2014-Sep-27 00:33N 36°52' E 025°45'1111.4
2014-Sep-26 23:34N 36°52' E 025°31'1413.7
2014-Sep-26 22:33N 37°02' E 025°19'5 5.3
2014-Sep-26 21:33N 37°06' E 025°22'0 0.0
2014-Sep-26 20:33N 37°06' E 025°22'1110.7
2014-Sep-26 19:33N 37°07' E 025°09'8 7.4
2014-Sep-26 18:31N 37°08' E 024°59'2222.5
2014-Sep-26 17:33N 37°15' E 024°33'2322.3
2014-Sep-26 16:30N 37°25' E 024°07'2222.4
2014-Sep-26 15:31N 37°39' E 023°45'1919.5
2014-Sep-26 14:33N 37°57' E 023°38'0 0.2
2014-Sep-26 13:33N 37°57' E 023°38'0 0.0
2014-Sep-26 12:33N 37°57' E 023°38'8 8.0
2014-Sep-26 11:34N 37°49' E 023°41'6622.0
2014-Sep-26 08:34N 37°14' E 024°52'1716.0
2014-Sep-26 07:32N 37°05' E 025°09'1110.8
2014-Sep-26 06:33N 37°06' E 025°22'9 8.8
2014-Sep-26 05:34N 37°12' E 025°30'1918.5
2014-Sep-26 04:33N 37°02' E 025°50'1312.6
2014-Sep-26 03:31N 36°56' E 026°04'2222.0
2014-Sep-26 02:33N 36°38' E 026°18'7 3.6
2014-Sep-26 00:33N 36°44' E 026°14'1717.1
2014-Sep-25 23:33N 36°54' E 025°57'1413.6
2014-Sep-25 22:33N 37°06' E 025°48'1818.0
2014-Sep-25 21:32N 37°09' E 025°25'1010.1
2014-Sep-25 20:33N 37°09' E 025°13'7 6.3
2014-Sep-25 19:28N 37°11' E 025°05'1617.6
2014-Sep-25 18:32N 37°26' E 024°57'1313.2
2014-Sep-25 17:32N 37°31' E 024°41'2222.4
2014-Sep-25 16:34N 37°31' E 024°13'2422.6
2014-Sep-25 15:29N 37°39' E 023°45'1819.6
2014-Sep-25 14:34N 37°57' E 023°38'0 0.1
2014-Sep-25 13:33N 37°57' E 023°38'0 0.0
2014-Sep-25 12:33N 37°57' E 023°38'6 6.3
2014-Sep-25 11:34N 37°51' E 023°40'6722.2
2014-Sep-25 08:33N 37°15' E 024°51'1717.3
2014-Sep-25 07:33N 37°05' E 025°09'1010.1
2014-Sep-25 06:33N 37°07' E 025°21'1110.6
2014-Sep-25 05:33N 37°13' E 025°33'1817.9
2014-Sep-25 04:33N 37°02' E 025°50'1211.7
2014-Sep-25 03:33N 36°56' E 026°03'2422.0
2014-Sep-25 02:28N 36°36' E 026°19'14 4.7
2014-Sep-24 23:33N 36°48' E 026°10'1211.5
2014-Sep-24 22:32N 36°54' E 025°58'1717.2
2014-Sep-24 21:33N 37°07' E 025°44'1817.9
2014-Sep-24 20:34N 37°07' E 025°22'10 9.0
2014-Sep-24 19:30N 37°08' E 025°10'7 7.0
2014-Sep-24 18:33N 37°08' E 025°02'2222.3
2014-Sep-24 17:33N 37°14' E 024°35'4622.3
2014-Sep-24 15:28N 37°38' E 023°45'1920.6
2014-Sep-24 14:33N 37°56' E 023°38'1 0.6
2014-Sep-24 13:33N 37°57' E 023°38'0 0.0
2014-Sep-24 12:33N 37°57' E 023°38'8 7.5
2014-Sep-24 11:34N 37°50' E 023°41'5322.4
2014-Sep-24 09:12N 37°15' E 024°31'1523.3
2014-Sep-24 08:34N 37°10' E 024°49'1716.2
2014-Sep-24 07:32N 37°05' E 025°09'1110.9
2014-Sep-24 06:34N 37°06' E 025°22'6 5.6
2014-Sep-24 05:34N 37°01' E 025°19'1313.1
2014-Sep-24 04:34N 36°52' E 025°31'1010.0
2014-Sep-24 03:34N 36°53' E 025°43'8 2.6
2014-Sep-24 00:31N 36°50' E 025°52'1314.0
2014-Sep-23 23:34N 36°54' E 025°36'9 9.0
2014-Sep-23 22:33N 36°54' E 025°25'1212.3
2014-Sep-23 21:33N 37°06' E 025°22'1211.6
2014-Sep-23 20:33N 37°05' E 025°08'9 9.3
2014-Sep-23 19:33N 37°14' E 025°04'1413.8
2014-Sep-23 18:33N 37°26' E 024°57'1212.2
2014-Sep-23 17:33N 37°31' E 024°42'2222.0
2014-Sep-23 16:33N 37°31' E 024°14'2322.5
2014-Sep-23 15:33N 37°39' E 023°47'1919.7
2014-Sep-23 14:34N 37°56' E 023°38'1 0.5
2014-Sep-23 13:33N 37°57' E 023°38'0 0.0
2014-Sep-23 12:33N 37°57' E 023°38'8 8.0
2014-Sep-23 11:33N 37°49' E 023°41'4321.4
2014-Sep-23 09:33N 37°28' E 024°28'2322.9
2014-Sep-23 08:33N 37°14' E 024°52'1716.3
2014-Sep-23 07:32N 37°05' E 025°09'1010.8
2014-Sep-23 06:33N 37°06' E 025°22'9 9.2
2014-Sep-23 05:33N 37°13' E 025°31'1818.1
2014-Sep-23 04:33N 37°03' E 025°49'1312.1
2014-Sep-23 03:31N 36°56' E 026°03'2221.9
2014-Sep-23 02:31N 36°38' E 026°18'3 1.3
2014-Sep-23 00:05N 36°36' E 026°20'1222.5
2014-Sep-22 23:33N 36°46' E 026°12'1412.5
2014-Sep-22 22:24N 36°54' E 025°58'1517.8
2014-Sep-22 21:33N 37°06' E 025°46'1918.9
2014-Sep-22 20:33N 37°07' E 025°22'8 8.4
2014-Sep-22 19:33N 37°09' E 025°12'9 8.6
2014-Sep-22 18:33N 37°08' E 025°02'2222.3
2014-Sep-22 17:33N 37°14' E 024°35'3322.4
2014-Sep-22 16:06N 37°30' E 023°59'1322.8
2014-Sep-22 15:33N 37°38' E 023°46'1919.8
2014-Sep-22 14:34N 37°57' E 023°38'0 0.4
2014-Sep-22 13:34N 37°57' E 023°38'0 0.0
2014-Sep-22 12:34N 37°57' E 023°38'7 7.1
2014-Sep-22 11:34N 37°50' E 023°40'6622.0
2014-Sep-22 08:33N 37°15' E 024°51'1717.1
2014-Sep-22 07:33N 37°05' E 025°09'1010.4
2014-Sep-22 06:33N 37°07' E 025°22'6 5.7
2014-Sep-22 05:33N 37°01' E 025°19'1312.6
2014-Sep-22 04:32N 36°52' E 025°31'9 8.9
2014-Sep-22 03:33N 36°55' E 025°41'  

Dump ship's entire track history